Time;durP1;ratioP1;P1;durP2;ratioP2;P2;SDS_P1;SDS_P2;PMS_P1;PMS_P2;Temp;Humidity;BMP_temperature;BMP_pressure;BME280_temperature;BME280_humidity;BME280_pressure;Samples;Min_cycle;Max_cycle;Signal;HPM_P1;HPM_P2
2023/07/13 04:02:25;;;;;;;3.43;2.70;;;15.80;99.90;;;;;;5084199;22;20852;-66
2023/07/13 04:04:53;;;;;;;3.80;2.67;;;15.80;99.90;;;;;;4992692;28;20470;-66
2023/07/13 04:07:20;;;;;;;1.83;1.73;;;15.90;99.90;;;;;;4992264;28;20558;-67
2023/07/13 04:09:46;;;;;;;1.87;1.87;;;15.90;99.90;;;;;;4992850;28;20489;-68
2023/07/13 04:12:14;;;;;;;2.37;2.27;;;15.90;99.90;;;;;;4992672;28;20482;-67
2023/07/13 04:14:40;;;;;;;3.03;2.90;;;15.90;99.90;;;;;;4992275;28;20993;-68
2023/07/13 04:17:07;;;;;;;2.50;2.40;;;16.00;99.90;;;;;;4993189;28;20463;-68
2023/07/13 04:19:35;;;;;;;2.23;2.00;;;16.10;99.90;;;;;;4991995;28;20470;-68
2023/07/13 04:22:02;;;;;;;2.23;2.13;;;16.10;99.90;;;;;;4991937;28;20495;-68
2023/07/13 04:24:28;;;;;;;1.83;1.70;;;16.20;99.90;;;;;;4991770;28;20967;-69
2023/07/13 04:26:59;;;;;;;2.40;2.30;;;16.30;99.90;;;;;;4992092;28;20471;-69
2023/07/13 04:29:25;;;;;;;3.40;3.20;;;16.40;99.90;;;;;;4991983;28;20907;-68
2023/07/13 04:31:52;;;;;;;8.80;3.10;;;16.90;99.90;;;;;;4991581;28;20880;-69
2023/07/13 04:34:19;;;;;;;2.50;2.40;;;17.60;99.90;;;;;;4991168;28;20467;-68
2023/07/13 04:36:47;;;;;;;2.00;1.90;;;18.10;99.90;;;;;;4991737;28;20463;-69
2023/07/13 04:39:14;;;;;;;1.83;1.83;;;18.80;99.90;;;;;;4991977;28;20467;-68
2023/07/13 04:41:40;;;;;;;1.80;1.80;;;19.30;99.90;;;;;;4991706;28;20493;-68
2023/07/13 04:44:07;;;;;;;1.20;1.20;;;19.50;99.90;;;;;;4985602;28;20468;-68
2023/07/13 04:46:34;;;;;;;1.73;1.73;;;19.20;99.90;;;;;;4991496;28;20460;-68
2023/07/13 04:49:03;;;;;;;3.07;1.50;;;19.00;99.90;;;;;;4990946;28;20469;-68
2023/07/13 04:51:30;;;;;;;1.67;1.67;;;18.70;99.90;;;;;;4991198;28;20507;-68
2023/07/13 04:53:58;;;;;;;1.90;1.50;;;18.50;99.90;;;;;;4991304;28;20935;-68
2023/07/13 04:56:25;;;;;;;1.43;1.43;;;18.30;99.90;;;;;;4991540;28;20473;-68
2023/07/13 04:58:51;;;;;;;1.57;1.50;;;18.20;99.90;;;;;;4991500;28;20574;-69
2023/07/13 05:01:18;;;;;;;1.90;1.90;;;18.10;99.90;;;;;;4990928;28;20495;-68
2023/07/13 05:03:45;;;;;;;1.50;1.50;;;18.00;99.90;;;;;;4991545;28;20467;-68
2023/07/13 05:06:12;;;;;;;1.73;1.73;;;18.00;99.90;;;;;;4991148;28;20470;-68
2023/07/13 05:08:38;;;;;;;2.03;1.93;;;18.40;99.90;;;;;;4991476;28;20495;-68
2023/07/13 05:11:07;;;;;;;1.57;1.57;;;19.20;99.90;;;;;;4991108;28;20484;-69
2023/07/13 05:13:34;;;;;;;1.93;1.80;;;19.90;99.90;;;;;;4991202;28;20466;-68
2023/07/13 05:16:02;;;;;;;3.77;1.93;;;20.60;99.90;;;;;;4990684;28;20469;-68
2023/07/13 05:18:30;;;;;;;1.80;1.70;;;21.20;99.90;;;;;;4990529;28;20469;-68
2023/07/13 05:21:00;;;;;;;1.57;1.57;;;21.70;99.90;;;;;;4990572;28;20867;-68
2023/07/13 05:23:27;;;;;;;1.50;1.40;;;22.00;99.90;;;;;;4991070;28;20464;-69
2023/07/13 05:25:54;;;;;;;1.20;1.20;;;22.30;99.90;;;;;;4990633;28;20855;-68
2023/07/13 05:28:23;;;;;;;1.00;1.00;;;22.60;99.90;;;;;;4990529;28;20471;-69
2023/07/13 05:30:50;;;;;;;1.87;1.13;;;23.00;99.90;;;;;;4990785;28;20481;-69
2023/07/13 05:33:17;;;;;;;1.20;1.20;;;23.30;99.90;;;;;;4990398;28;20470;-69
2023/07/13 05:35:44;;;;;;;1.13;1.13;;;23.50;99.90;;;;;;4990704;28;20543;-68
2023/07/13 05:38:11;;;;;;;1.60;1.03;;;23.50;99.90;;;;;;4990340;28;20823;-69
2023/07/13 05:40:38;;;;;;;0.90;0.90;;;23.50;99.90;;;;;;4990480;28;20494;-68
2023/07/13 05:43:05;;;;;;;3.40;1.30;;;23.20;99.90;;;;;;4992273;28;20466;-68
2023/07/13 05:45:33;;;;;;;1.40;1.30;;;23.00;99.90;;;;;;5010071;28;20479;-68
2023/07/13 05:48:00;;;;;;;1.00;1.00;;;22.80;99.90;;;;;;5009535;28;20920;-68
2023/07/13 05:50:27;;;;;;;0.87;0.87;;;22.90;99.90;;;;;;5010331;28;20464;-68
2023/07/13 05:52:53;;;;;;;0.77;0.77;;;22.90;99.90;;;;;;5010509;28;20479;-68
2023/07/13 05:55:20;;;;;;;3.00;1.40;;;22.90;99.90;;;;;;5010035;28;20474;-69
2023/07/13 05:57:47;;;;;;;1.30;1.20;;;22.70;99.90;;;;;;5009835;28;20537;-68
2023/07/13 06:00:15;;;;;;;0.93;0.93;;;22.40;99.90;;;;;;5009783;28;20464;-69
2023/07/13 06:02:43;;;;;;;0.60;0.60;;;22.20;99.90;;;;;;5009292;28;20574;-68
2023/07/13 06:05:10;;;;;;;1.80;0.93;;;22.40;99.90;;;;;;5009843;28;20572;-68
2023/07/13 06:07:37;;;;;;;0.70;0.70;;;22.80;99.90;;;;;;5009478;28;20734;-69
2023/07/13 06:10:04;;;;;;;1.00;1.00;;;23.40;99.90;;;;;;5010043;28;20492;-69
2023/07/13 06:12:31;;;;;;;0.73;0.67;;;23.70;99.90;;;;;;5009721;28;20824;-69
2023/07/13 06:14:57;;;;;;;0.80;0.80;;;24.00;99.90;;;;;;5009814;28;20466;-68
2023/07/13 06:17:24;;;;;;;0.60;0.60;;;24.30;99.90;;;;;;5009930;28;20814;-69
2023/07/13 06:19:52;;;;;;;0.80;0.80;;;24.90;99.90;;;;;;5009569;28;20541;-70
2023/07/13 06:22:19;;;;;;;0.80;0.77;;;25.20;99.90;;;;;;5009310;28;20979;-69
2023/07/13 06:24:45;;;;;;;0.73;0.73;;;25.20;99.90;;;;;;5009374;28;20485;-69
2023/07/13 06:27:12;;;;;;;0.90;0.90;;;25.30;99.90;;;;;;5010054;28;20466;-69
2023/07/13 06:29:39;;;;;;;0.90;0.90;;;25.40;99.90;;;;;;5009773;28;20466;-69
2023/07/13 06:32:07;;;;;;;1.43;1.10;;;25.50;99.90;;;;;;5009632;28;20478;-69
2023/07/13 06:34:34;;;;;;;1.30;1.20;;;25.70;99.90;;;;;;5009016;28;20492;-69
2023/07/13 06:37:02;;;;;;;1.50;1.00;;;25.50;99.90;;;;;;5009796;28;20827;-69
2023/07/13 06:39:29;;;;;;;0.80;0.80;;;25.60;99.90;;;;;;5009866;28;20472;-68
2023/07/13 06:41:55;;;;;;;0.67;0.67;;;25.80;99.90;;;;;;5012165;28;20494;-69
2023/07/13 06:44:22;;;;;;;0.80;0.80;;;25.80;99.90;;;;;;4998908;28;20463;-68
2023/07/13 06:46:49;;;;;;;2.13;0.90;;;25.30;99.90;;;;;;4993616;28;20470;-68
2023/07/13 06:49:15;;;;;;;1.43;1.27;;;25.30;99.90;;;;;;4993666;28;20466;-69
2023/07/13 06:51:42;;;;;;;1.23;1.23;;;24.80;99.90;;;;;;4993011;28;20489;-69
2023/07/13 06:54:10;;;;;;;2.20;1.13;;;24.70;99.90;;;;;;4993635;28;20462;-68
2023/07/13 06:56:37;;;;;;;1.17;0.60;;;24.70;99.90;;;;;;4994093;28;20466;-68
2023/07/13 06:59:04;;;;;;;1.13;0.60;;;24.80;99.90;;;;;;4993524;28;20958;-69
2023/07/13 07:01:30;;;;;;;2.67;0.70;;;25.20;99.90;;;;;;4993403;28;20494;-68
2023/07/13 07:03:57;;;;;;;2.50;0.90;;;25.40;99.90;;;;;;4992767;28;20462;-68
2023/07/13 07:06:24;;;;;;;2.37;0.90;;;25.50;99.90;;;;;;4992493;28;20462;-68
2023/07/13 07:08:51;;;;;;;1.00;1.00;;;25.60;99.90;;;;;;4993125;28;20463;-68
2023/07/13 07:11:22;;;;;;;1.70;1.10;;;25.60;99.90;;;;;;4993221;28;20475;-68
2023/07/13 07:13:48;;;;;;;0.80;0.80;;;26.00;99.90;;;;;;4993330;28;20574;-68
2023/07/13 07:16:15;;;;;;;0.50;0.50;;;26.50;99.90;;;;;;4992943;28;20470;-68
2023/07/13 07:18:42;;;;;;;0.97;0.97;;;26.60;99.90;;;;;;4992868;28;20467;-68
2023/07/13 07:21:09;;;;;;;0.93;0.93;;;26.10;99.90;;;;;;4992865;28;20490;-68
2023/07/13 07:23:36;;;;;;;1.47;0.70;;;25.30;99.90;;;;;;4993255;28;20474;-68
2023/07/13 07:26:03;;;;;;;1.90;0.73;;;24.70;99.90;;;;;;4993013;28;20482;-68
2023/07/13 07:28:31;;;;;;;0.67;0.67;;;24.60;99.90;;;;;;4992944;28;21064;-68
2023/07/13 07:30:59;;;;;;;1.30;1.00;;;24.10;99.90;;;;;;4993086;28;20482;-68
2023/07/13 07:33:26;;;;;;;1.10;1.10;;;23.70;99.90;;;;;;4992483;28;20572;-68
2023/07/13 07:35:53;;;;;;;1.23;0.50;;;23.60;99.90;;;;;;4992544;28;20469;-68
2023/07/13 07:38:20;;;;;;;9.07;1.47;;;23.70;99.90;;;;;;4993097;28;20463;-68
2023/07/13 07:40:46;;;;;;;1.00;1.00;;;23.70;99.90;;;;;;4992675;28;20837;-68
2023/07/13 07:43:13;;;;;;;0.60;0.60;;;23.50;99.90;;;;;;4996889;28;20806;-68
2023/07/13 07:45:41;;;;;;;0.87;0.87;;;23.30;99.90;;;;;;5004948;28;20470;-68
2023/07/13 07:48:09;;;;;;;1.60;1.50;;;23.70;99.90;;;;;;4992576;28;20463;-68
2023/07/13 07:50:36;;;;;;;1.80;0.80;;;23.60;99.90;;;;;;4993254;28;20581;-68
2023/07/13 07:53:06;;;;;;;1.30;1.20;;;23.30;99.90;;;;;;4991880;28;20580;-68
2023/07/13 07:55:34;;;;;;;0.90;0.90;;;23.00;99.90;;;;;;4992605;28;20476;-68
2023/07/13 07:58:01;;;;;;;3.40;1.37;;;22.70;99.90;;;;;;4992772;28;20469;-68
2023/07/13 08:00:30;;;;;;;1.33;0.63;;;22.40;99.90;;;;;;4992435;28;20487;-68
2023/07/13 08:02:59;;;;;;;0.73;0.70;;;22.30;99.90;;;;;;4992196;28;20496;-68
2023/07/13 08:05:26;;;;;;;2.83;1.30;;;22.50;99.90;;;;;;4992447;28;20465;-68
2023/07/13 08:07:53;;;;;;;3.57;1.17;;;23.40;99.90;;;;;;4991939;28;20467;-68
2023/07/13 08:10:20;;;;;;;0.87;0.80;;;24.40;99.90;;;;;;4992523;28;20470;-68
2023/07/13 08:12:47;;;;;;;1.50;1.40;;;24.90;99.90;;;;;;4992240;28;20485;-68
2023/07/13 08:15:17;;;;;;;0.77;0.77;;;24.90;99.90;;;;;;4992072;28;20962;-68
2023/07/13 08:17:44;;;;;;;0.83;0.83;;;24.80;99.90;;;;;;4991848;28;20467;-68
2023/07/13 08:20:12;;;;;;;1.50;1.40;;;25.10;99.90;;;;;;4992512;28;20470;-68
2023/07/13 08:22:39;;;;;;;1.80;0.90;;;25.00;99.90;;;;;;4991546;28;20494;-68
2023/07/13 08:25:06;;;;;;;1.00;1.00;;;24.20;99.90;;;;;;4991928;28;20477;-69
2023/07/13 08:27:34;;;;;;;1.00;1.00;;;24.20;99.90;;;;;;4991751;28;20469;-67
2023/07/13 08:30:01;;;;;;;1.17;1.07;;;24.30;99.90;;;;;;4992512;28;20467;-67
2023/07/13 08:32:27;;;;;;;2.17;0.67;;;24.70;99.90;;;;;;4992094;28;20483;-68
2023/07/13 08:34:54;;;;;;;3.90;0.90;;;24.70;99.90;;;;;;4991792;28;20472;-68
2023/07/13 08:37:22;;;;;;;1.43;0.77;;;24.50;99.90;;;;;;4991680;28;20500;-68
2023/07/13 08:39:49;;;;;;;0.60;0.60;;;24.20;99.90;;;;;;4991858;28;20492;-68
2023/07/13 08:42:27;;;;;;;1.37;1.07;;;24.00;99.90;;;;;;4990768;28;21185;-66
2023/07/13 08:45:05;;;;;;;1.13;1.13;;;23.90;99.90;;;;;;5007195;28;20472;-67
2023/07/13 08:47:33;;;;;;;1.00;1.00;;;23.80;99.90;;;;;;5011210;28;20867;-67
2023/07/13 08:50:01;;;;;;;0.77;0.60;;;24.00;99.90;;;;;;5011369;28;20963;-67
2023/07/13 08:52:34;;;;;;;0.80;0.50;;;23.90;99.90;;;;;;5010794;28;20491;-67
2023/07/13 08:55:06;;;;;;;0.80;0.80;;;23.70;99.90;;;;;;5011009;28;20815;-67
2023/07/13 08:57:35;;;;;;;0.40;0.40;;;23.70;99.90;;;;;;5010886;28;20827;-67
2023/07/13 09:00:05;;;;;;;0.40;0.40;;;23.60;99.90;;;;;;5011167;28;20550;-67
2023/07/13 09:02:41;;;;;;;2.37;0.70;;;23.10;99.90;;;;;;5010452;28;20497;-67
2023/07/13 09:05:13;;;;;;;1.10;1.03;;;23.20;99.90;;;;;;5009865;28;20473;-67
2023/07/13 09:08:03;;;;;;;2.10;0.93;;;23.70;99.90;;;;;;5010420;28;20469;-67
2023/07/13 09:10:33;;;;;;;1.37;1.13;;;23.90;99.90;;;;;;5010835;28;20491;-67
2023/07/13 09:13:13;;;;;;;0.93;0.93;;;23.70;99.90;;;;;;5010443;28;20462;-67
2023/07/13 09:15:43;;;;;;;0.60;0.60;;;23.40;99.90;;;;;;5010501;28;20465;-67
2023/07/13 09:18:13;;;;;;;0.70;0.70;;;23.40;99.90;;;;;;5009996;28;20468;-67
2023/07/13 09:20:46;;;;;;;0.93;0.63;;;23.40;99.90;;;;;;5010888;28;20864;-67
2023/07/13 09:23:17;;;;;;;0.80;0.80;;;23.50;99.90;;;;;;5010462;28;20493;-67
2023/07/13 09:25:46;;;;;;;0.70;0.70;;;23.50;99.90;;;;;;5010184;28;20468;-67
2023/07/13 09:28:19;;;;;;;0.80;0.47;;;23.40;99.90;;;;;;5010302;28;20465;-67
2023/07/13 09:30:53;;;;;;;1.03;0.80;;;23.30;99.90;;;;;;5010645;28;20512;-67
2023/07/13 09:33:19;;;;;;;2.27;0.60;;;23.30;99.90;;;;;;5009932;28;21079;-67
2023/07/13 09:35:46;;;;;;;0.50;0.50;;;23.10;99.90;;;;;;5010035;28;20566;-67
2023/07/13 09:38:16;;;;;;;3.30;0.77;;;22.90;99.90;;;;;;5009965;28;20475;-67
2023/07/13 09:41:08;;;;;;;0.80;0.80;;;23.00;99.90;;;;;;5010312;28;20492;-67
2023/07/13 09:43:36;;;;;;;2.77;1.00;;;23.20;99.90;;;;;;5006517;28;20483;-67
2023/07/13 09:46:03;;;;;;;0.70;0.70;;;23.40;99.90;;;;;;4998721;28;20487;-67
2023/07/13 09:48:36;;;;;;;0.77;0.77;;;23.50;99.90;;;;;;4993863;28;20468;-67
2023/07/13 09:51:13;;;;;;;0.40;0.40;;;23.50;99.90;;;;;;4990741;28;20545;-67
2023/07/13 09:53:43;;;;;;;0.67;0.67;;;23.30;99.90;;;;;;4990829;28;20475;-68
2023/07/13 09:56:20;;;;;;;2.20;1.10;;;23.10;99.90;;;;;;4990286;28;20466;-68
2023/07/13 09:58:47;;;;;;;0.73;0.73;;;22.50;99.90;;;;;;4990523;28;20481;-68
2023/07/13 10:01:14;;;;;;;1.13;0.90;;;22.20;99.90;;;;;;4990104;28;20497;-68
2023/07/13 10:03:53;;;;;;;1.70;0.77;;;21.90;99.90;;;;;;4990153;28;20489;-68
2023/07/13 10:06:21;;;;;;;1.00;1.00;;;21.80;99.90;;;;;;4990204;28;20461;-68
2023/07/13 10:08:51;;;;;;;1.57;0.67;;;21.70;99.90;;;;;;4990447;28;20965;-68
2023/07/13 10:11:22;;;;;;;1.43;0.70;;;21.80;99.90;;;;;;4990288;28;20552;-67
2023/07/13 10:13:54;;;;;;;0.70;0.60;;;21.90;99.90;;;;;;4990292;28;20473;-68
2023/07/13 10:16:21;;;;;;;0.93;0.93;;;22.00;99.90;;;;;;4993653;28;20488;-68
2023/07/13 10:18:50;;;;;;;1.07;1.00;;;22.20;99.90;;;;;;4994068;28;20946;-68
2023/07/13 10:21:20;;;;;;;0.83;0.83;;;22.30;99.90;;;;;;4994372;28;20569;-68
2023/07/13 10:23:53;;;;;;;0.80;0.80;;;22.20;99.90;;;;;;4994256;28;20809;-68
2023/07/13 10:26:24;;;;;;;1.20;0.60;;;22.40;99.90;;;;;;4994088;28;20466;-68
2023/07/13 10:28:56;;;;;;;0.87;0.87;;;22.60;99.90;;;;;;4994035;28;20806;-67
2023/07/13 10:31:24;;;;;;;1.10;1.10;;;22.80;99.90;;;;;;4994303;28;20540;-68
2023/07/13 10:33:50;;;;;;;0.70;0.70;;;22.80;99.90;;;;;;4993734;28;20965;-68
2023/07/13 10:36:28;;;;;;;1.03;1.03;;;22.90;99.90;;;;;;4993922;28;20465;-68
2023/07/13 10:39:00;;;;;;;1.07;1.00;;;23.10;99.90;;;;;;4994380;28;20477;-68
2023/07/13 10:41:30;;;;;;;0.90;0.90;;;23.40;99.90;;;;;;4996696;28;20487;-68
2023/07/13 10:43:59;;;;;;;1.70;0.77;;;23.70;99.90;;;;;;5004882;28;20458;-68
2023/07/13 10:46:29;;;;;;;1.07;1.07;;;23.90;99.90;;;;;;4999251;28;20460;-68
2023/07/13 10:48:59;;;;;;;1.17;0.80;;;24.10;99.90;;;;;;4993854;28;20477;-68
2023/07/13 10:51:27;;;;;;;0.73;0.73;;;24.40;99.90;;;;;;4993738;28;20497;-68
2023/07/13 10:54:16;;;;;;;0.70;0.70;;;24.40;99.90;;;;;;4993878;28;20469;-68
2023/07/13 10:56:44;;;;;;;1.53;1.23;;;24.50;99.90;;;;;;4993827;28;20512;-68
2023/07/13 10:59:17;;;;;;;0.77;0.77;;;24.60;99.90;;;;;;4993668;28;20873;-68
2023/07/13 11:01:52;;;;;;;1.00;1.00;;;24.50;99.90;;;;;;4993308;28;20493;-68
2023/07/13 11:04:20;;;;;;;1.13;1.13;;;24.40;99.90;;;;;;4993301;28;20496;-67
2023/07/13 11:06:50;;;;;;;1.07;1.07;;;24.40;99.90;;;;;;4992976;28;20469;-68
2023/07/13 11:09:38;;;;;;;1.20;1.17;;;24.30;99.90;;;;;;4993641;28;20471;-68
2023/07/13 11:12:14;;;;;;;0.60;0.60;;;24.30;99.90;;;;;;4993294;28;20532;-68
2023/07/13 11:14:44;;;;;;;1.00;1.00;;;24.30;99.90;;;;;;4993453;28;20959;-68
2023/07/13 11:17:36;;;;;;;5.80;0.90;;;24.40;99.90;;;;;;4993526;28;20665;-68
2023/07/13 11:20:21;;;;;;;1.50;1.40;;;24.30;99.90;;;;;;4993440;28;20487;-68
2023/07/13 11:22:49;;;;;;;0.50;0.50;;;24.00;99.90;;;;;;4992634;28;20491;-68
2023/07/13 11:25:30;;;;;;;0.77;0.70;;;23.90;99.90;;;;;;4993299;28;20462;-68
2023/07/13 11:28:21;;;;;;;0.93;0.93;;;24.00;99.90;;;;;;4992179;28;20466;-67
2023/07/13 11:30:51;;;;;;;0.90;0.90;;;24.20;99.90;;;;;;4993064;28;20488;-67
2023/07/13 11:33:20;;;;;;;0.97;0.97;;;24.30;99.90;;;;;;4993414;28;21014;-67
2023/07/13 11:36:01;;;;;;;0.97;0.97;;;24.40;99.90;;;;;;4993262;28;20466;-68
2023/07/13 11:38:35;;;;;;;0.90;0.90;;;24.50;99.90;;;;;;4993394;28;20475;-68
2023/07/13 11:41:05;;;;;;;0.93;0.80;;;24.60;99.90;;;;;;4992947;28;20484;-68
2023/07/13 11:43:34;;;;;;;0.83;0.77;;;24.70;99.90;;;;;;5000107;28;20485;-68
2023/07/13 11:46:14;;;;;;;1.40;1.10;;;24.80;99.90;;;;;;4993166;28;20462;-68
2023/07/13 11:48:48;;;;;;;0.87;0.87;;;24.90;99.90;;;;;;4992603;28;20491;-68
2023/07/13 11:51:21;;;;;;;0.80;0.80;;;25.00;99.90;;;;;;4992491;28;20489;-68
2023/07/13 11:53:51;;;;;;;0.87;0.87;;;25.00;99.90;;;;;;4992667;28;20466;-68
2023/07/13 11:56:19;;;;;;;0.77;0.77;;;25.00;99.90;;;;;;4992481;28;20942;-68
2023/07/13 11:58:50;;;;;;;0.90;0.90;;;24.90;99.90;;;;;;4992882;28;20470;-68
2023/07/13 12:01:22;;;;;;;0.97;0.97;;;25.00;99.90;;;;;;4992440;28;20508;-68
2023/07/13 12:03:50;;;;;;;1.00;1.00;;;25.10;99.90;;;;;;4992185;28;20841;-68
2023/07/13 12:06:28;;;;;;;1.50;0.90;;;25.00;99.90;;;;;;4992081;28;20571;-68
2023/07/13 12:09:00;;;;;;;1.00;1.00;;;25.10;99.90;;;;;;4993115;28;20465;-68
2023/07/13 12:11:29;;;;;;;0.80;0.80;;;25.10;99.90;;;;;;4992977;28;20521;-68
2023/07/13 12:13:55;;;;;;;0.83;0.83;;;25.20;99.90;;;;;;4992825;28;20518;-68
2023/07/13 12:16:28;;;;;;;0.83;0.83;;;25.10;99.90;;;;;;4992569;28;20470;-68
2023/07/13 12:18:56;;;;;;;1.20;1.03;;;25.20;99.90;;;;;;4992747;28;20473;-68
2023/07/13 12:21:28;;;;;;;1.10;1.10;;;25.30;99.90;;;;;;4992420;28;20501;-68
2023/07/13 12:23:55;;;;;;;2.43;0.97;;;25.30;99.90;;;;;;4992774;28;20497;-68
2023/07/13 12:26:22;;;;;;;0.93;0.93;;;25.50;99.90;;;;;;4992944;28;20467;-68
2023/07/13 12:28:56;;;;;;;0.97;0.97;;;25.20;99.90;;;;;;4992695;28;20501;-68
2023/07/13 12:31:32;;;;;;;1.93;1.23;;;24.90;99.90;;;;;;4992252;28;20544;-68
2023/07/13 12:34:00;;;;;;;6.43;1.23;;;24.50;99.90;;;;;;4991721;28;20580;-68
2023/07/13 12:36:30;;;;;;;1.20;1.20;;;24.30;99.90;;;;;;4991969;28;20469;-68
2023/07/13 12:39:03;;;;;;;1.33;1.07;;;24.20;99.90;;;;;;4992341;28;20475;-68
2023/07/13 12:41:30;;;;;;;1.00;1.00;;;24.10;99.90;;;;;;4992185;28;20545;-68
2023/07/13 12:44:00;;;;;;;2.20;1.37;;;24.00;99.90;;;;;;4999714;28;20595;-68
2023/07/13 12:46:29;;;;;;;1.53;1.23;;;24.20;99.90;;;;;;5011785;28;20471;-68
2023/07/13 12:48:58;;;;;;;1.50;1.10;;;24.20;99.90;;;;;;5011450;28;20470;-68
2023/07/13 12:51:27;;;;;;;1.37;1.37;;;24.20;99.90;;;;;;5011335;28;20488;-68
2023/07/13 12:54:05;;;;;;;1.50;1.40;;;23.90;99.90;;;;;;5011543;28;20460;-68
2023/07/13 12:56:34;;;;;;;1.70;1.20;;;23.60;99.90;;;;;;5011580;28;20466;-68
2023/07/13 12:59:05;;;;;;;1.57;1.57;;;23.50;99.90;;;;;;5012003;28;20462;-68
2023/07/13 13:01:37;;;;;;;1.57;1.57;;;23.30;99.90;;;;;;5011654;28;20494;-68
2023/07/13 13:04:06;;;;;;;3.60;1.60;;;22.70;99.90;;;;;;5010859;28;20503;-68
2023/07/13 13:06:35;;;;;;;1.67;1.57;;;21.40;99.90;;;;;;5010981;28;20465;-68
2023/07/13 13:09:03;;;;;;;1.90;1.90;;;20.40;99.90;;;;;;5011216;28;20565;-68
2023/07/13 13:11:32;;;;;;;1.27;1.27;;;19.90;99.90;;;;;;5011442;28;20522;-68
2023/07/13 13:13:59;;;;;;;1.10;1.10;;;19.20;99.90;;;;;;5011137;28;20480;-68
2023/07/13 13:16:32;;;;;;;2.20;1.87;;;18.60;99.90;;;;;;5011204;28;20469;-67
2023/07/13 13:19:05;;;;;;;1.70;1.60;;;18.20;99.90;;;;;;5010971;28;20469;-67
2023/07/13 13:21:32;;;;;;;15.83;1.90;;;18.10;99.90;;;;;;5010875;28;20485;-68
2023/07/13 13:23:59;;;;;;;1.50;1.50;;;18.10;99.90;;;;;;5010895;28;20576;-68
2023/07/13 13:26:25;;;;;;;2.17;1.63;;;17.90;99.90;;;;;;5011028;28;20469;-68
2023/07/13 13:28:53;;;;;;;6.53;1.90;;;17.80;99.90;;;;;;5011338;28;20462;-67
2023/07/13 13:31:19;;;;;;;1.90;1.80;;;18.00;99.90;;;;;;5011052;28;20872;-68
2023/07/13 13:33:48;;;;;;;1.87;1.77;;;18.20;99.90;;;;;;5010438;28;20469;-67
2023/07/13 13:36:16;;;;;;;1.60;1.60;;;18.40;99.90;;;;;;5010564;28;20940;-67
2023/07/13 13:38:44;;;;;;;2.53;2.23;;;18.60;99.90;;;;;;5011728;28;20583;-68
2023/07/13 13:41:12;;;;;;;1.67;1.67;;;18.70;99.90;;;;;;5013990;28;20482;-68
2023/07/13 13:43:40;;;;;;;1.80;1.70;;;18.80;99.90;;;;;;5010255;28;20490;-68
2023/07/13 13:46:22;;;;;;;1.40;1.40;;;18.90;99.90;;;;;;5012765;28;20462;-68
2023/07/13 13:48:50;;;;;;;1.70;1.60;;;19.00;99.90;;;;;;5013920;28;20560;-68
2023/07/13 13:51:19;;;;;;;1.87;1.87;;;19.30;99.90;;;;;;5011338;28;20490;-67
2023/07/13 13:53:46;;;;;;;2.00;2.00;;;19.40;99.90;;;;;;5011356;28;20465;-67
2023/07/13 13:56:13;;;;;;;1.70;1.60;;;19.40;99.90;;;;;;5010484;28;20468;-68
2023/07/13 13:58:41;;;;;;;2.97;2.10;;;19.30;99.90;;;;;;5010600;28;20477;-67
2023/07/13 14:01:14;;;;;;;2.10;2.00;;;19.20;99.90;;;;;;5010263;28;20501;-67
2023/07/13 14:03:41;;;;;;;1.93;1.93;;;19.30;99.90;;;;;;5010273;28;20489;-66
2023/07/13 14:06:13;;;;;;;2.40;2.33;;;19.30;99.90;;;;;;5009739;28;20470;-66
2023/07/13 14:08:40;;;;;;;1.53;1.53;;;19.40;99.90;;;;;;5010659;28;20516;-66
2023/07/13 14:11:11;;;;;;;2.37;2.27;;;19.50;99.90;;;;;;5010638;28;20490;-66
2023/07/13 14:13:43;;;;;;;2.10;2.00;;;19.50;99.90;;;;;;5011100;28;20823;-67
2023/07/13 14:16:13;;;;;;;2.40;2.20;;;19.60;99.90;;;;;;5010152;28;20470;-67
2023/07/13 14:18:40;;;;;;;3.50;2.23;;;19.60;99.90;;;;;;5008591;28;20957;-67
2023/07/13 14:21:14;;;;;;;1.63;1.63;;;19.60;99.90;;;;;;5009878;28;20540;-67
2023/07/13 14:23:40;;;;;;;3.60;1.77;;;19.70;99.90;;;;;;5010075;28;20501;-68
2023/07/13 14:26:11;;;;;;;2.20;2.10;;;19.70;99.90;;;;;;5009912;28;20470;-68
2023/07/13 14:28:42;;;;;;;1.63;1.63;;;19.70;99.90;;;;;;5010209;28;20458;-68
2023/07/13 14:31:09;;;;;;;2.10;2.10;;;19.60;99.90;;;;;;5010250;28;20913;-67
2023/07/13 14:33:36;;;;;;;1.80;1.70;;;19.60;99.90;;;;;;5009782;28;20935;-67
2023/07/13 14:36:04;;;;;;;1.60;1.60;;;19.60;99.90;;;;;;5009379;28;20473;-68
2023/07/13 14:38:32;;;;;;;2.20;2.10;;;19.60;99.90;;;;;;5009944;28;20466;-67
2023/07/13 14:40:59;;;;;;;2.33;2.33;;;19.60;99.90;;;;;;5010117;28;20493;-67
2023/07/13 14:43:28;;;;;;;8.60;2.27;;;19.70;99.90;;;;;;5005065;28;20485;-67
2023/07/13 14:45:56;;;;;;;1.87;1.87;;;19.70;99.90;;;;;;5009712;28;20462;-68
2023/07/13 14:48:25;;;;;;;1.70;1.60;;;19.70;99.90;;;;;;5009747;28;20462;-68
2023/07/13 14:50:56;;;;;;;1.50;1.50;;;19.70;99.90;;;;;;5009459;28;20486;-68
2023/07/13 14:53:25;;;;;;;1.93;1.83;;;19.80;99.90;;;;;;5010416;28;20462;-67
2023/07/13 14:55:53;;;;;;;1.90;1.90;;;19.80;99.90;;;;;;5009809;28;20970;-67
2023/07/13 14:58:20;;;;;;;2.27;1.60;;;19.80;99.90;;;;;;5009867;28;20471;-67
2023/07/13 15:00:48;;;;;;;1.67;1.67;;;19.90;99.90;;;;;;5009828;28;20941;-67
2023/07/13 15:03:21;;;;;;;4.27;1.90;;;20.00;99.90;;;;;;5012130;28;20497;-68
2023/07/13 15:05:49;;;;;;;1.30;1.30;;;20.00;99.90;;;;;;5013427;28;20465;-67
2023/07/13 15:08:16;;;;;;;1.40;1.40;;;20.00;99.90;;;;;;5013351;28;20462;-68
2023/07/13 15:10:43;;;;;;;1.87;1.87;;;20.00;99.90;;;;;;5013700;28;20508;-68
2023/07/13 15:13:20;;;;;;;1.50;1.50;;;20.00;99.90;;;;;;5013312;28;20473;-68
2023/07/13 15:15:48;;;;;;;1.50;1.40;;;20.10;99.90;;;;;;5012892;28;20512;-68
2023/07/13 15:18:17;;;;;;;0.77;0.77;;;20.10;99.90;;;;;;5013010;28;20457;-68
2023/07/13 15:20:46;;;;;;;1.37;1.37;;;20.20;99.90;;;;;;5013524;28;20481;-67
2023/07/13 15:23:13;;;;;;;1.43;1.43;;;20.30;99.90;;;;;;5012728;28;20561;-69
2023/07/13 15:25:40;;;;;;;1.47;1.47;;;20.30;99.90;;;;;;5013535;28;20982;-68
2023/07/13 15:28:07;;;;;;;0.90;0.90;;;20.30;99.90;;;;;;5013001;28;20911;-68
2023/07/13 15:30:41;;;;;;;1.00;1.00;;;20.30;99.90;;;;;;5013718;28;20483;-68
2023/07/13 15:33:14;;;;;;;0.83;0.83;;;20.40;99.90;;;;;;5012772;28;20908;-68
2023/07/13 15:35:42;;;;;;;0.90;0.90;;;20.30;99.90;;;;;;5013021;28;20959;-67
2023/07/13 15:38:20;;;;;;;0.80;0.80;;;20.30;99.90;;;;;;5012593;28;20493;-68
2023/07/13 15:40:47;;;;;;;0.93;0.93;;;20.40;99.90;;;;;;5013186;28;20487;-68
2023/07/13 15:43:16;;;;;;;0.77;0.77;;;20.40;99.90;;;;;;5008278;28;20471;-67
2023/07/13 15:45:46;;;;;;;0.77;0.77;;;20.50;99.90;;;;;;4994879;28;20474;-67
2023/07/13 15:48:17;;;;;;;0.77;0.77;;;20.70;99.90;;;;;;4993054;28;20468;-68
2023/07/13 15:50:47;;;;;;;1.07;1.07;;;20.80;99.90;;;;;;4993601;28;20493;-68
2023/07/13 15:53:15;;;;;;;0.83;0.83;;;20.80;99.90;;;;;;4993107;28;20465;-68
2023/07/13 15:55:42;;;;;;;0.90;0.90;;;21.10;99.90;;;;;;4993160;28;20475;-68
2023/07/13 15:58:14;;;;;;;1.23;0.83;;;21.30;99.90;;;;;;4993380;28;20465;-68
2023/07/13 16:00:41;;;;;;;0.67;0.67;;;21.10;99.90;;;;;;4993283;28;20491;-68
2023/07/13 16:03:09;;;;;;;0.80;0.80;;;21.10;99.90;;;;;;4992839;28;20475;-67
2023/07/13 16:05:37;;;;;;;0.73;0.73;;;21.10;99.90;;;;;;4993283;28;20507;-67
2023/07/13 16:08:05;;;;;;;0.67;0.67;;;21.20;99.90;;;;;;4992623;28;20494;-68
2023/07/13 16:10:34;;;;;;;0.87;0.87;;;21.20;99.90;;;;;;4993539;28;20547;-67
2023/07/13 16:13:02;;;;;;;1.00;1.00;;;21.30;99.90;;;;;;4992772;28;20521;-68
2023/07/13 16:15:29;;;;;;;0.80;0.80;;;21.30;99.90;;;;;;4993313;28;20463;-68
2023/07/13 16:17:55;;;;;;;0.83;0.83;;;21.30;99.90;;;;;;4992386;28;20781;-68
2023/07/13 16:20:24;;;;;;;0.80;0.80;;;21.30;99.90;;;;;;4992578;28;20498;-67
2023/07/13 16:22:54;;;;;;;1.07;1.07;;;21.30;99.90;;;;;;4992666;28;21154;-70
2023/07/13 16:25:24;;;;;;;0.60;0.60;;;21.40;99.90;;;;;;4992721;28;20491;-69
2023/07/13 16:27:52;;;;;;;0.67;0.67;;;21.40;99.90;;;;;;4992686;28;20470;-69
2023/07/13 16:30:22;;;;;;;0.77;0.77;;;21.50;99.90;;;;;;4992833;28;20472;-68
2023/07/13 16:32:51;;;;;;;0.80;0.80;;;21.50;99.90;;;;;;4992297;28;20476;-69
2023/07/13 16:35:18;;;;;;;0.73;0.73;;;21.60;99.90;;;;;;4993112;28;20467;-69
2023/07/13 16:37:46;;;;;;;1.43;1.33;;;21.60;99.90;;;;;;4992738;28;20982;-71
2023/07/13 16:40:24;;;;;;;0.50;0.50;;;21.60;99.90;;;;;;4992798;28;20462;-68
2023/07/13 16:42:53;;;;;;;0.97;0.97;;;21.60;99.90;;;;;;4996050;28;20827;-69
2023/07/13 16:45:23;;;;;;;0.67;0.67;;;21.70;99.90;;;;;;5011604;28;20558;-69
2023/07/13 16:47:51;;;;;;;0.87;0.87;;;21.70;99.90;;;;;;5011361;28;21115;-70
2023/07/13 16:50:20;;;;;;;0.87;0.87;;;21.60;99.90;;;;;;5012195;28;20466;-69
2023/07/13 16:52:49;;;;;;;1.70;1.60;;;21.60;99.90;;;;;;5011605;28;20851;-67
2023/07/13 16:55:18;;;;;;;0.60;0.60;;;21.60;99.90;;;;;;5011905;28;20465;-68
2023/07/13 16:57:47;;;;;;;0.77;0.77;;;21.60;99.90;;;;;;5011562;28;20904;-69
2023/07/13 17:00:23;;;;;;;0.70;0.70;;;21.50;99.90;;;;;;5011576;28;20473;-69